Bountiful, UT

1:51 AM MDT on July 04, 2015 (GMT -0600)
Barton Court | | Change Station
CLOSE
Current Station
Personal Weather Station
Location: Bountiful, UT
Elevation: 5056 ft
Nearby Weather Stations

Elev 5056 ft 40.88 °N, 111.85 °W | Updated 3 minutes ago

Partly Cloudy
Partly Cloudy
79.2 °F
Feels Like 84 °F
N
8.3
Wind Variable Wind from SSE

Today
High -- | Low -- °F
--% Chance of Precip.
Yesterday
High -- | Low -- °F
Precip. -- in
6:01 AM 9:02 PM
Waning Gibbous, 93% visible
Pressure 29.70 in
Visibility 10.0 miles
Clouds Mostly Cloudy 14000 ft
Mostly Cloudy 20000 ft
Heat Index 84 °F
Dew Point 79 °F
Humidity 98%
Rainfall 0.00 in
Snow Depth Not available.
UV 0 out of 12
Pollen 6.40 out of 12
Air Quality Not available.
Flu Activity Not available.
METAR KSLC 040653Z 13006KT 10SM BKN140 BKN200 28/08 A2991 RMK AO2 SLP058 T02830083 403720233

More Conditions Fewer Conditions

Pressure 29.70 in
Visibility 10.0 miles
Clouds Mostly Cloudy 14000 ft
Mostly Cloudy 20000 ft
Heat Index 84 °F
Dew Point 79 °F
Humidity 98%
Rainfall 0.00 in
Snow Depth Not available.
UV 0 out of 12
Pollen 6.40 out of 12
Air Quality Not available.
Flu Activity Not available.
METAR KSLC 040653Z 13006KT 10SM BKN140 BKN200 28/08 A2991 RMK AO2 SLP058 T02830083 403720233

More Conditions Fewer Conditions

10-Day Weather Forecast

×

Almanac

Astronomy

Jul. 04, 2015 Rise Set
Actual Time
Civil Twilight
Nautical Twilight
Astronomical Twilight
Moon
Length of Visible Light
Length of Day
Tomorrow will be .
, % of the Moon is Illuminated

Today's Extremes

State Highs State Lows

Community

WunderPhotos

Upload Photos

1,834,930 photos uploaded!

WunderBlogs® & News

Nearby

Air Quality

  Air Quality AQ Index Pollutant
Not available.

Snow Depth

Station Depth Elevation

Earthquake Activity

City Distance Mag. Time & Date
Minimum magnitude displayed is 2.5.

Coastal Water Temperatures

Place Temperature

Stations

Nearby Weather Stations

Station Location Temp. Windchill Dew Point Humidity Wind Precip. Elev Updated Type